sensor_id;sensor_type;location;lat;lon;timestamp;P1;durP1;ratioP1;P2;durP2;ratioP2
76714;SDS011;65644;44.990;20.288;2023-12-04T00:01:29;29.77;;;19.63;;
76714;SDS011;65644;44.990;20.288;2023-12-04T00:03:55;31.00;;;20.63;;
76714;SDS011;65644;44.990;20.288;2023-12-04T00:06:21;35.70;;;23.07;;
76714;SDS011;65644;44.990;20.288;2023-12-04T00:08:47;36.10;;;25.03;;
76714;SDS011;65644;44.990;20.288;2023-12-04T00:11:13;32.53;;;20.70;;
76714;SDS011;65644;44.990;20.288;2023-12-04T00:13:39;29.63;;;19.63;;
76714;SDS011;65644;44.990;20.288;2023-12-04T00:16:06;32.13;;;22.63;;
76714;SDS011;65644;44.990;20.288;2023-12-04T00:18:32;35.03;;;22.90;;
76714;SDS011;65644;44.990;20.288;2023-12-04T00:20:58;33.60;;;21.07;;
76714;SDS011;65644;44.990;20.288;2023-12-04T00:23:24;27.83;;;19.50;;
76714;SDS011;65644;44.990;20.288;2023-12-04T00:25:50;33.93;;;21.97;;
76714;SDS011;65644;44.990;20.288;2023-12-04T00:28:16;39.63;;;24.50;;
76714;SDS011;65644;44.990;20.288;2023-12-04T00:30:42;34.17;;;21.63;;
76714;SDS011;65644;44.990;20.288;2023-12-04T00:33:08;32.63;;;20.83;;
76714;SDS011;65644;44.990;20.288;2023-12-04T00:35:34;30.50;;;21.17;;
76714;SDS011;65644;44.990;20.288;2023-12-04T00:38:00;32.30;;;21.47;;
76714;SDS011;65644;44.990;20.288;2023-12-04T00:40:26;37.63;;;25.07;;
76714;SDS011;65644;44.990;20.288;2023-12-04T00:42:52;34.77;;;23.20;;
76714;SDS011;65644;44.990;20.288;2023-12-04T00:45:19;37.37;;;22.77;;
76714;SDS011;65644;44.990;20.288;2023-12-04T00:47:45;34.37;;;21.13;;
76714;SDS011;65644;44.990;20.288;2023-12-04T00:50:11;35.10;;;22.33;;
76714;SDS011;65644;44.990;20.288;2023-12-04T00:52:37;33.73;;;20.77;;
76714;SDS011;65644;44.990;20.288;2023-12-04T00:55:03;31.90;;;21.67;;
76714;SDS011;65644;44.990;20.288;2023-12-04T00:57:29;33.73;;;22.23;;
76714;SDS011;65644;44.990;20.288;2023-12-04T00:59:56;32.90;;;20.90;;
76714;SDS011;65644;44.990;20.288;2023-12-04T01:02:22;33.90;;;22.30;;
76714;SDS011;65644;44.990;20.288;2023-12-04T01:04:48;34.93;;;21.90;;
76714;SDS011;65644;44.990;20.288;2023-12-04T01:07:14;34.57;;;22.87;;
76714;SDS011;65644;44.990;20.288;2023-12-04T01:09:41;37.67;;;24.40;;
76714;SDS011;65644;44.990;20.288;2023-12-04T01:12:07;35.63;;;23.00;;
76714;SDS011;65644;44.990;20.288;2023-12-04T01:14:33;34.67;;;23.63;;
76714;SDS011;65644;44.990;20.288;2023-12-04T01:16:59;35.20;;;23.50;;
76714;SDS011;65644;44.990;20.288;2023-12-04T01:19:25;35.93;;;24.57;;
76714;SDS011;65644;44.990;20.288;2023-12-04T01:21:51;37.63;;;23.97;;
76714;SDS011;65644;44.990;20.288;2023-12-04T01:24:18;36.93;;;24.30;;
76714;SDS011;65644;44.990;20.288;2023-12-04T01:26:44;35.80;;;26.00;;
76714;SDS011;65644;44.990;20.288;2023-12-04T01:29:10;37.40;;;24.47;;
76714;SDS011;65644;44.990;20.288;2023-12-04T01:31:36;36.63;;;25.00;;
76714;SDS011;65644;44.990;20.288;2023-12-04T01:34:02;36.87;;;24.67;;
76714;SDS011;65644;44.990;20.288;2023-12-04T01:36:28;37.93;;;25.10;;
76714;SDS011;65644;44.990;20.288;2023-12-04T01:38:55;40.20;;;25.83;;
76714;SDS011;65644;44.990;20.288;2023-12-04T01:41:21;44.60;;;27.67;;
76714;SDS011;65644;44.990;20.288;2023-12-04T01:43:47;35.67;;;25.17;;
76714;SDS011;65644;44.990;20.288;2023-12-04T01:46:13;37.13;;;24.27;;
76714;SDS011;65644;44.990;20.288;2023-12-04T01:48:41;35.93;;;24.00;;
76714;SDS011;65644;44.990;20.288;2023-12-04T01:51:07;37.33;;;24.77;;
76714;SDS011;65644;44.990;20.288;2023-12-04T01:53:35;39.10;;;24.43;;
76714;SDS011;65644;44.990;20.288;2023-12-04T01:56:02;38.20;;;24.80;;
76714;SDS011;65644;44.990;20.288;2023-12-04T01:58:28;38.60;;;25.67;;
76714;SDS011;65644;44.990;20.288;2023-12-04T02:00:54;38.97;;;24.83;;
76714;SDS011;65644;44.990;20.288;2023-12-04T02:03:20;35.50;;;23.10;;
76714;SDS011;65644;44.990;20.288;2023-12-04T02:05:47;36.37;;;24.27;;
76714;SDS011;65644;44.990;20.288;2023-12-04T02:08:13;40.13;;;25.27;;
76714;SDS011;65644;44.990;20.288;2023-12-04T02:10:39;42.20;;;25.57;;
76714;SDS011;65644;44.990;20.288;2023-12-04T02:13:05;39.57;;;25.83;;
76714;SDS011;65644;44.990;20.288;2023-12-04T02:15:32;37.37;;;25.17;;
76714;SDS011;65644;44.990;20.288;2023-12-04T02:17:58;40.73;;;27.17;;
76714;SDS011;65644;44.990;20.288;2023-12-04T02:20:33;41.10;;;27.90;;
76714;SDS011;65644;44.990;20.288;2023-12-04T02:23:03;40.93;;;26.80;;
76714;SDS011;65644;44.990;20.288;2023-12-04T02:25:29;38.30;;;25.17;;
76714;SDS011;65644;44.990;20.288;2023-12-04T02:27:56;41.97;;;27.50;;
76714;SDS011;65644;44.990;20.288;2023-12-04T02:30:24;41.90;;;27.67;;
76714;SDS011;65644;44.990;20.288;2023-12-04T02:32:52;44.40;;;27.53;;
76714;SDS011;65644;44.990;20.288;2023-12-04T02:35:20;41.93;;;26.67;;
76714;SDS011;65644;44.990;20.288;2023-12-04T02:37:47;39.67;;;26.77;;
76714;SDS011;65644;44.990;20.288;2023-12-04T02:40:13;41.53;;;26.83;;
76714;SDS011;65644;44.990;20.288;2023-12-04T02:42:39;42.07;;;27.40;;
76714;SDS011;65644;44.990;20.288;2023-12-04T02:45:05;40.30;;;25.60;;
76714;SDS011;65644;44.990;20.288;2023-12-04T02:47:32;42.70;;;27.60;;
76714;SDS011;65644;44.990;20.288;2023-12-04T02:49:58;39.37;;;27.37;;
76714;SDS011;65644;44.990;20.288;2023-12-04T02:52:24;39.60;;;26.67;;
76714;SDS011;65644;44.990;20.288;2023-12-04T02:54:50;41.87;;;27.90;;
76714;SDS011;65644;44.990;20.288;2023-12-04T02:57:16;39.63;;;26.70;;
76714;SDS011;65644;44.990;20.288;2023-12-04T02:59:42;42.33;;;28.23;;
76714;SDS011;65644;44.990;20.288;2023-12-04T03:02:08;42.97;;;27.43;;
76714;SDS011;65644;44.990;20.288;2023-12-04T03:04:34;48.37;;;29.30;;
76714;SDS011;65644;44.990;20.288;2023-12-04T03:07:00;54.37;;;30.67;;
76714;SDS011;65644;44.990;20.288;2023-12-04T03:09:27;58.83;;;34.07;;
76714;SDS011;65644;44.990;20.288;2023-12-04T03:11:53;56.20;;;32.73;;
76714;SDS011;65644;44.990;20.288;2023-12-04T03:14:19;51.70;;;29.67;;
76714;SDS011;65644;44.990;20.288;2023-12-04T03:16:45;45.37;;;29.63;;
76714;SDS011;65644;44.990;20.288;2023-12-04T03:19:11;43.70;;;28.93;;
76714;SDS011;65644;44.990;20.288;2023-12-04T03:21:37;47.10;;;30.77;;
76714;SDS011;65644;44.990;20.288;2023-12-04T03:24:03;49.53;;;32.60;;
76714;SDS011;65644;44.990;20.288;2023-12-04T03:26:29;42.37;;;28.63;;
76714;SDS011;65644;44.990;20.288;2023-12-04T03:28:55;45.73;;;28.80;;
76714;SDS011;65644;44.990;20.288;2023-12-04T03:31:22;47.47;;;31.00;;
76714;SDS011;65644;44.990;20.288;2023-12-04T03:33:49;55.87;;;33.93;;
76714;SDS011;65644;44.990;20.288;2023-12-04T03:36:15;51.50;;;31.93;;
76714;SDS011;65644;44.990;20.288;2023-12-04T03:38:41;49.00;;;32.87;;
76714;SDS011;65644;44.990;20.288;2023-12-04T03:41:16;49.80;;;32.80;;
76714;SDS011;65644;44.990;20.288;2023-12-04T03:43:42;51.28;;;31.77;;
76714;SDS011;65644;44.990;20.288;2023-12-04T03:46:08;45.63;;;29.93;;
76714;SDS011;65644;44.990;20.288;2023-12-04T03:48:34;48.20;;;31.37;;
76714;SDS011;65644;44.990;20.288;2023-12-04T03:51:00;48.50;;;30.97;;
76714;SDS011;65644;44.990;20.288;2023-12-04T03:53:27;46.37;;;30.37;;
76714;SDS011;65644;44.990;20.288;2023-12-04T03:55:53;44.20;;;30.63;;
76714;SDS011;65644;44.990;20.288;2023-12-04T03:58:19;52.90;;;33.07;;
76714;SDS011;65644;44.990;20.288;2023-12-04T04:00:45;55.17;;;34.93;;
76714;SDS011;65644;44.990;20.288;2023-12-04T04:03:11;50.83;;;31.27;;
76714;SDS011;65644;44.990;20.288;2023-12-04T04:05:37;55.83;;;32.77;;
76714;SDS011;65644;44.990;20.288;2023-12-04T04:08:03;52.17;;;33.47;;
76714;SDS011;65644;44.990;20.288;2023-12-04T04:10:31;57.90;;;37.57;;
76714;SDS011;65644;44.990;20.288;2023-12-04T04:12:57;55.43;;;36.63;;
76714;SDS011;65644;44.990;20.288;2023-12-04T04:15:23;57.33;;;36.53;;
76714;SDS011;65644;44.990;20.288;2023-12-04T04:17:49;59.97;;;37.67;;
76714;SDS011;65644;44.990;20.288;2023-12-04T04:20:15;63.13;;;38.83;;
76714;SDS011;65644;44.990;20.288;2023-12-04T04:22:41;60.33;;;36.70;;
76714;SDS011;65644;44.990;20.288;2023-12-04T04:25:08;57.63;;;35.07;;
76714;SDS011;65644;44.990;20.288;2023-12-04T04:27:34;56.90;;;37.27;;
76714;SDS011;65644;44.990;20.288;2023-12-04T04:30:01;67.30;;;38.23;;
76714;SDS011;65644;44.990;20.288;2023-12-04T04:32:27;87.40;;;46.10;;
76714;SDS011;65644;44.990;20.288;2023-12-04T04:34:53;68.70;;;41.67;;
76714;SDS011;65644;44.990;20.288;2023-12-04T04:37:19;68.37;;;37.97;;
76714;SDS011;65644;44.990;20.288;2023-12-04T04:39:45;61.70;;;38.03;;
76714;SDS011;65644;44.990;20.288;2023-12-04T04:42:11;60.77;;;34.93;;
76714;SDS011;65644;44.990;20.288;2023-12-04T04:44:37;50.80;;;34.73;;
76714;SDS011;65644;44.990;20.288;2023-12-04T04:47:03;53.03;;;33.90;;
76714;SDS011;65644;44.990;20.288;2023-12-04T04:49:30;54.23;;;34.77;;
76714;SDS011;65644;44.990;20.288;2023-12-04T04:51:56;54.30;;;34.93;;
76714;SDS011;65644;44.990;20.288;2023-12-04T04:54:22;52.57;;;32.97;;
76714;SDS011;65644;44.990;20.288;2023-12-04T04:56:48;54.43;;;34.07;;
76714;SDS011;65644;44.990;20.288;2023-12-04T04:59:14;50.87;;;33.10;;
76714;SDS011;65644;44.990;20.288;2023-12-04T05:01:40;56.77;;;35.30;;
76714;SDS011;65644;44.990;20.288;2023-12-04T05:04:06;62.03;;;35.40;;
76714;SDS011;65644;44.990;20.288;2023-12-04T05:06:32;61.03;;;36.17;;
76714;SDS011;65644;44.990;20.288;2023-12-04T05:08:58;68.63;;;36.93;;
76714;SDS011;65644;44.990;20.288;2023-12-04T05:11:24;65.20;;;34.83;;
76714;SDS011;65644;44.990;20.288;2023-12-04T05:13:50;64.47;;;37.53;;
76714;SDS011;65644;44.990;20.288;2023-12-04T05:16:16;68.73;;;39.57;;
76714;SDS011;65644;44.990;20.288;2023-12-04T05:18:43;66.17;;;39.27;;
76714;SDS011;65644;44.990;20.288;2023-12-04T05:21:09;66.73;;;37.73;;
76714;SDS011;65644;44.990;20.288;2023-12-04T05:23:36;65.93;;;39.10;;
76714;SDS011;65644;44.990;20.288;2023-12-04T05:26:02;60.73;;;38.67;;
76714;SDS011;65644;44.990;20.288;2023-12-04T05:28:28;62.77;;;39.03;;
76714;SDS011;65644;44.990;20.288;2023-12-04T05:30:54;67.23;;;40.03;;
76714;SDS011;65644;44.990;20.288;2023-12-04T05:33:20;78.20;;;41.60;;
76714;SDS011;65644;44.990;20.288;2023-12-04T05:35:49;70.13;;;41.57;;
76714;SDS011;65644;44.990;20.288;2023-12-04T05:38:18;68.53;;;42.37;;
76714;SDS011;65644;44.990;20.288;2023-12-04T05:40:44;70.87;;;41.73;;
76714;SDS011;65644;44.990;20.288;2023-12-04T05:43:10;78.80;;;43.77;;
76714;SDS011;65644;44.990;20.288;2023-12-04T05:45:37;70.17;;;43.00;;
76714;SDS011;65644;44.990;20.288;2023-12-04T05:48:03;67.60;;;42.33;;
76714;SDS011;65644;44.990;20.288;2023-12-04T05:50:29;68.87;;;44.47;;
76714;SDS011;65644;44.990;20.288;2023-12-04T05:52:55;65.80;;;41.80;;
76714;SDS011;65644;44.990;20.288;2023-12-04T05:55:21;68.53;;;43.63;;
76714;SDS011;65644;44.990;20.288;2023-12-04T05:57:47;70.63;;;44.60;;
76714;SDS011;65644;44.990;20.288;2023-12-04T06:00:13;77.73;;;44.50;;
76714;SDS011;65644;44.990;20.288;2023-12-04T06:02:41;73.97;;;45.33;;
76714;SDS011;65644;44.990;20.288;2023-12-04T06:05:07;75.90;;;44.20;;
76714;SDS011;65644;44.990;20.288;2023-12-04T06:07:34;77.77;;;44.60;;
76714;SDS011;65644;44.990;20.288;2023-12-04T06:10:00;76.37;;;46.13;;
76714;SDS011;65644;44.990;20.288;2023-12-04T06:12:26;79.07;;;51.57;;
76714;SDS011;65644;44.990;20.288;2023-12-04T06:14:52;79.20;;;48.13;;
76714;SDS011;65644;44.990;20.288;2023-12-04T06:17:18;78.03;;;47.07;;
76714;SDS011;65644;44.990;20.288;2023-12-04T06:19:46;76.50;;;48.27;;
76714;SDS011;65644;44.990;20.288;2023-12-04T06:22:12;88.10;;;49.53;;
76714;SDS011;65644;44.990;20.288;2023-12-04T06:24:38;83.37;;;50.30;;
76714;SDS011;65644;44.990;20.288;2023-12-04T06:27:04;92.70;;;50.53;;
76714;SDS011;65644;44.990;20.288;2023-12-04T06:29:33;86.27;;;51.20;;
76714;SDS011;65644;44.990;20.288;2023-12-04T06:32:00;108.80;;;51.50;;
76714;SDS011;65644;44.990;20.288;2023-12-04T06:34:26;82.73;;;46.30;;
76714;SDS011;65644;44.990;20.288;2023-12-04T06:36:52;87.87;;;47.57;;
76714;SDS011;65644;44.990;20.288;2023-12-04T06:39:20;82.03;;;47.20;;
76714;SDS011;65644;44.990;20.288;2023-12-04T06:41:47;86.67;;;46.73;;
76714;SDS011;65644;44.990;20.288;2023-12-04T06:44:14;73.57;;;44.43;;
76714;SDS011;65644;44.990;20.288;2023-12-04T06:46:40;72.83;;;47.50;;
76714;SDS011;65644;44.990;20.288;2023-12-04T06:49:09;69.47;;;42.00;;
76714;SDS011;65644;44.990;20.288;2023-12-04T06:51:35;63.40;;;40.73;;
76714;SDS011;65644;44.990;20.288;2023-12-04T06:54:01;60.27;;;39.83;;
76714;SDS011;65644;44.990;20.288;2023-12-04T06:56:27;60.53;;;38.30;;
76714;SDS011;65644;44.990;20.288;2023-12-04T06:58:53;82.07;;;45.80;;
76714;SDS011;65644;44.990;20.288;2023-12-04T07:01:19;79.77;;;46.53;;
76714;SDS011;65644;44.990;20.288;2023-12-04T07:03:47;80.53;;;45.30;;
76714;SDS011;65644;44.990;20.288;2023-12-04T07:06:13;81.37;;;44.57;;
76714;SDS011;65644;44.990;20.288;2023-12-04T07:08:39;99.57;;;54.47;;
76714;SDS011;65644;44.990;20.288;2023-12-04T07:11:06;78.80;;;46.40;;
76714;SDS011;65644;44.990;20.288;2023-12-04T07:13:33;100.43;;;53.00;;
76714;SDS011;65644;44.990;20.288;2023-12-04T07:15:59;94.87;;;56.97;;
76714;SDS011;65644;44.990;20.288;2023-12-04T07:18:25;104.33;;;59.80;;
76714;SDS011;65644;44.990;20.288;2023-12-04T07:20:51;86.10;;;53.53;;
76714;SDS011;65644;44.990;20.288;2023-12-04T07:23:17;74.38;;;46.70;;
76714;SDS011;65644;44.990;20.288;2023-12-04T07:25:44;87.68;;;48.40;;
76714;SDS011;65644;44.990;20.288;2023-12-04T07:28:11;78.63;;;43.33;;
76714;SDS011;65644;44.990;20.288;2023-12-04T07:30:38;69.72;;;41.78;;
76714;SDS011;65644;44.990;20.288;2023-12-04T07:33:04;63.65;;;42.35;;
76714;SDS011;65644;44.990;20.288;2023-12-04T07:35:30;63.53;;;40.72;;
76714;SDS011;65644;44.990;20.288;2023-12-04T07:37:56;42.25;;;32.33;;
76714;SDS011;65644;44.990;20.288;2023-12-04T07:40:22;54.72;;;37.47;;
76714;SDS011;65644;44.990;20.288;2023-12-04T07:42:48;46.45;;;36.50;;
76714;SDS011;65644;44.990;20.288;2023-12-04T07:45:15;42.67;;;33.55;;
76714;SDS011;65644;44.990;20.288;2023-12-04T07:47:41;41.38;;;33.15;;
76714;SDS011;65644;44.990;20.288;2023-12-04T07:50:07;39.70;;;32.83;;
76714;SDS011;65644;44.990;20.288;2023-12-04T07:52:33;42.80;;;33.08;;
76714;SDS011;65644;44.990;20.288;2023-12-04T07:54:59;38.80;;;31.17;;
76714;SDS011;65644;44.990;20.288;2023-12-04T07:57:25;40.80;;;31.50;;
76714;SDS011;65644;44.990;20.288;2023-12-04T07:59:51;43.83;;;31.45;;
76714;SDS011;65644;44.990;20.288;2023-12-04T08:02:18;41.42;;;32.20;;
76714;SDS011;65644;44.990;20.288;2023-12-04T08:04:44;41.78;;;32.40;;
76714;SDS011;65644;44.990;20.288;2023-12-04T08:07:11;49.00;;;35.03;;
76714;SDS011;65644;44.990;20.288;2023-12-04T08:09:37;44.13;;;32.08;;
76714;SDS011;65644;44.990;20.288;2023-12-04T08:12:03;44.15;;;33.15;;
76714;SDS011;65644;44.990;20.288;2023-12-04T08:14:29;50.13;;;35.75;;
76714;SDS011;65644;44.990;20.288;2023-12-04T08:16:55;49.08;;;33.90;;
76714;SDS011;65644;44.990;20.288;2023-12-04T08:19:21;47.72;;;31.88;;
76714;SDS011;65644;44.990;20.288;2023-12-04T08:21:48;42.47;;;30.75;;
76714;SDS011;65644;44.990;20.288;2023-12-04T08:24:14;47.88;;;34.90;;
76714;SDS011;65644;44.990;20.288;2023-12-04T08:26:43;49.10;;;35.95;;
76714;SDS011;65644;44.990;20.288;2023-12-04T08:29:10;52.30;;;34.58;;
76714;SDS011;65644;44.990;20.288;2023-12-04T08:31:36;52.15;;;36.10;;
76714;SDS011;65644;44.990;20.288;2023-12-04T08:34:03;45.73;;;33.23;;
76714;SDS011;65644;44.990;20.288;2023-12-04T08:36:29;46.47;;;32.28;;
76714;SDS011;65644;44.990;20.288;2023-12-04T08:38:55;47.00;;;32.50;;
76714;SDS011;65644;44.990;20.288;2023-12-04T08:41:21;40.85;;;31.33;;
76714;SDS011;65644;44.990;20.288;2023-12-04T08:43:47;40.23;;;29.60;;
76714;SDS011;65644;44.990;20.288;2023-12-04T08:46:13;36.50;;;27.13;;
76714;SDS011;65644;44.990;20.288;2023-12-04T08:48:40;37.30;;;27.10;;
76714;SDS011;65644;44.990;20.288;2023-12-04T08:51:06;38.07;;;27.00;;
76714;SDS011;65644;44.990;20.288;2023-12-04T08:53:34;34.40;;;25.63;;
76714;SDS011;65644;44.990;20.288;2023-12-04T08:56:00;33.70;;;25.40;;
76714;SDS011;65644;44.990;20.288;2023-12-04T08:58:27;29.70;;;22.53;;
76714;SDS011;65644;44.990;20.288;2023-12-04T09:00:53;32.47;;;23.10;;
76714;SDS011;65644;44.990;20.288;2023-12-04T09:03:19;42.47;;;29.97;;
76714;SDS011;65644;44.990;20.288;2023-12-04T09:05:47;47.53;;;32.10;;
76714;SDS011;65644;44.990;20.288;2023-12-04T09:08:15;30.13;;;22.73;;
76714;SDS011;65644;44.990;20.288;2023-12-04T09:10:42;34.70;;;24.43;;
76714;SDS011;65644;44.990;20.288;2023-12-04T09:13:08;32.63;;;24.93;;
76714;SDS011;65644;44.990;20.288;2023-12-04T09:15:34;29.20;;;19.97;;
76714;SDS011;65644;44.990;20.288;2023-12-04T09:18:00;29.77;;;21.07;;
76714;SDS011;65644;44.990;20.288;2023-12-04T09:20:26;29.13;;;21.20;;
76714;SDS011;65644;44.990;20.288;2023-12-04T09:22:53;31.27;;;20.63;;
76714;SDS011;65644;44.990;20.288;2023-12-04T09:25:19;27.67;;;20.37;;
76714;SDS011;65644;44.990;20.288;2023-12-04T09:27:45;29.27;;;22.10;;
76714;SDS011;65644;44.990;20.288;2023-12-04T09:30:11;29.33;;;21.87;;
76714;SDS011;65644;44.990;20.288;2023-12-04T09:32:38;32.00;;;21.67;;
76714;SDS011;65644;44.990;20.288;2023-12-04T09:35:06;31.40;;;23.03;;
76714;SDS011;65644;44.990;20.288;2023-12-04T09:37:32;28.53;;;21.37;;
76714;SDS011;65644;44.990;20.288;2023-12-04T09:39:58;27.47;;;18.60;;
76714;SDS011;65644;44.990;20.288;2023-12-04T09:42:24;23.47;;;17.23;;
76714;SDS011;65644;44.990;20.288;2023-12-04T09:44:51;20.10;;;15.03;;
76714;SDS011;65644;44.990;20.288;2023-12-04T09:47:19;20.03;;;13.40;;
76714;SDS011;65644;44.990;20.288;2023-12-04T09:49:45;22.07;;;15.17;;
76714;SDS011;65644;44.990;20.288;2023-12-04T09:52:11;22.40;;;14.47;;
76714;SDS011;65644;44.990;20.288;2023-12-04T09:54:37;12.80;;;9.30;;
76714;SDS011;65644;44.990;20.288;2023-12-04T09:57:05;13.40;;;10.50;;
76714;SDS011;65644;44.990;20.288;2023-12-04T09:59:31;17.00;;;11.27;;
76714;SDS011;65644;44.990;20.288;2023-12-04T10:01:57;16.77;;;12.57;;
76714;SDS011;65644;44.990;20.288;2023-12-04T10:04:23;20.33;;;13.30;;
76714;SDS011;65644;44.990;20.288;2023-12-04T10:06:50;12.53;;;9.93;;
76714;SDS011;65644;44.990;20.288;2023-12-04T10:09:17;16.43;;;10.83;;
76714;SDS011;65644;44.990;20.288;2023-12-04T10:11:44;18.60;;;13.57;;
76714;SDS011;65644;44.990;20.288;2023-12-04T10:14:18;24.17;;;17.37;;
76714;SDS011;65644;44.990;20.288;2023-12-04T10:16:44;21.83;;;16.00;;
76714;SDS011;65644;44.990;20.288;2023-12-04T10:19:18;22.63;;;16.50;;
76714;SDS011;65644;44.990;20.288;2023-12-04T10:21:47;24.50;;;17.70;;
76714;SDS011;65644;44.990;20.288;2023-12-04T10:24:33;25.50;;;17.13;;
76714;SDS011;65644;44.990;20.288;2023-12-04T10:27:02;22.93;;;17.70;;
76714;SDS011;65644;44.990;20.288;2023-12-04T10:29:30;23.53;;;17.87;;
76714;SDS011;65644;44.990;20.288;2023-12-04T10:32:07;28.00;;;17.77;;
76714;SDS011;65644;44.990;20.288;2023-12-04T10:34:33;29.13;;;17.40;;
76714;SDS011;65644;44.990;20.288;2023-12-04T10:36:59;25.53;;;17.93;;
76714;SDS011;65644;44.990;20.288;2023-12-04T10:39:25;26.73;;;17.60;;
76714;SDS011;65644;44.990;20.288;2023-12-04T10:42:01;25.53;;;18.23;;
76714;SDS011;65644;44.990;20.288;2023-12-04T10:44:28;26.53;;;18.77;;
76714;SDS011;65644;44.990;20.288;2023-12-04T10:46:57;28.37;;;18.63;;
76714;SDS011;65644;44.990;20.288;2023-12-04T10:49:25;24.00;;;17.30;;
76714;SDS011;65644;44.990;20.288;2023-12-04T10:51:53;24.53;;;17.73;;
76714;SDS011;65644;44.990;20.288;2023-12-04T10:54:19;33.80;;;20.73;;
76714;SDS011;65644;44.990;20.288;2023-12-04T10:56:45;36.13;;;22.57;;
76714;SDS011;65644;44.990;20.288;2023-12-04T10:59:15;26.97;;;18.87;;
76714;SDS011;65644;44.990;20.288;2023-12-04T11:01:43;25.50;;;18.57;;
76714;SDS011;65644;44.990;20.288;2023-12-04T11:04:11;27.97;;;20.33;;
76714;SDS011;65644;44.990;20.288;2023-12-04T11:06:40;27.27;;;19.27;;
76714;SDS011;65644;44.990;20.288;2023-12-04T11:09:07;25.40;;;18.13;;
76714;SDS011;65644;44.990;20.288;2023-12-04T11:11:34;24.97;;;17.90;;
76714;SDS011;65644;44.990;20.288;2023-12-04T11:14:02;25.93;;;18.30;;
76714;SDS011;65644;44.990;20.288;2023-12-04T11:18:56;23.90;;;17.97;;
76714;SDS011;65644;44.990;20.288;2023-12-04T11:21:26;23.27;;;17.80;;
76714;SDS011;65644;44.990;20.288;2023-12-04T11:23:52;25.40;;;18.73;;
76714;SDS011;65644;44.990;20.288;2023-12-04T11:26:19;22.70;;;16.67;;
76714;SDS011;65644;44.990;20.288;2023-12-04T11:28:45;26.33;;;16.67;;
76714;SDS011;65644;44.990;20.288;2023-12-04T11:31:13;23.17;;;16.87;;
76714;SDS011;65644;44.990;20.288;2023-12-04T11:33:39;21.40;;;15.90;;
76714;SDS011;65644;44.990;20.288;2023-12-04T11:36:15;22.73;;;16.10;;
76714;SDS011;65644;44.990;20.288;2023-12-04T11:38:45;27.83;;;20.30;;
76714;SDS011;65644;44.990;20.288;2023-12-04T11:41:15;30.40;;;22.47;;
76714;SDS011;65644;44.990;20.288;2023-12-04T11:43:42;28.93;;;21.43;;
76714;SDS011;65644;44.990;20.288;2023-12-04T11:46:09;29.87;;;19.40;;
76714;SDS011;65644;44.990;20.288;2023-12-04T11:48:38;24.98;;;17.77;;
76714;SDS011;65644;44.990;20.288;2023-12-04T11:51:07;29.40;;;19.38;;
76714;SDS011;65644;44.990;20.288;2023-12-04T11:53:39;27.53;;;18.80;;
76714;SDS011;65644;44.990;20.288;2023-12-04T11:56:09;26.23;;;19.50;;
76714;SDS011;65644;44.990;20.288;2023-12-04T11:58:43;27.63;;;20.17;;
76714;SDS011;65644;44.990;20.288;2023-12-04T12:01:09;25.83;;;18.93;;
76714;SDS011;65644;44.990;20.288;2023-12-04T12:03:35;24.83;;;18.13;;
76714;SDS011;65644;44.990;20.288;2023-12-04T12:06:01;27.08;;;18.23;;
76714;SDS011;65644;44.990;20.288;2023-12-04T12:08:28;25.50;;;18.97;;
76714;SDS011;65644;44.990;20.288;2023-12-04T12:10:54;25.57;;;18.57;;
76714;SDS011;65644;44.990;20.288;2023-12-04T12:13:20;20.02;;;15.70;;
76714;SDS011;65644;44.990;20.288;2023-12-04T12:15:47;22.23;;;15.10;;
76714;SDS011;65644;44.990;20.288;2023-12-04T12:18:15;19.08;;;14.57;;
76714;SDS011;65644;44.990;20.288;2023-12-04T12:20:41;26.38;;;16.95;;
76714;SDS011;65644;44.990;20.288;2023-12-04T12:23:08;20.58;;;16.85;;
76714;SDS011;65644;44.990;20.288;2023-12-04T12:25:34;24.25;;;16.92;;
76714;SDS011;65644;44.990;20.288;2023-12-04T12:28:03;23.30;;;16.23;;
76714;SDS011;65644;44.990;20.288;2023-12-04T12:30:30;22.00;;;15.98;;
76714;SDS011;65644;44.990;20.288;2023-12-04T12:32:56;21.10;;;14.27;;
76714;SDS011;65644;44.990;20.288;2023-12-04T12:35:22;18.58;;;14.07;;
76714;SDS011;65644;44.990;20.288;2023-12-04T12:37:50;21.88;;;15.50;;
76714;SDS011;65644;44.990;20.288;2023-12-04T12:40:20;18.27;;;14.55;;
76714;SDS011;65644;44.990;20.288;2023-12-04T12:42:46;18.10;;;12.63;;
76714;SDS011;65644;44.990;20.288;2023-12-04T12:45:14;21.50;;;14.50;;
76714;SDS011;65644;44.990;20.288;2023-12-04T12:47:43;20.50;;;15.93;;
76714;SDS011;65644;44.990;20.288;2023-12-04T12:50:09;20.45;;;15.48;;
76714;SDS011;65644;44.990;20.288;2023-12-04T12:52:36;21.85;;;15.50;;
76714;SDS011;65644;44.990;20.288;2023-12-04T12:55:03;23.00;;;17.63;;
76714;SDS011;65644;44.990;20.288;2023-12-04T12:57:30;21.90;;;17.52;;
76714;SDS011;65644;44.990;20.288;2023-12-04T12:59:56;26.75;;;18.88;;
76714;SDS011;65644;44.990;20.288;2023-12-04T13:02:22;30.58;;;18.67;;
76714;SDS011;65644;44.990;20.288;2023-12-04T13:04:48;22.38;;;17.35;;
76714;SDS011;65644;44.990;20.288;2023-12-04T13:07:16;27.15;;;18.65;;
76714;SDS011;65644;44.990;20.288;2023-12-04T13:09:43;21.67;;;16.25;;
76714;SDS011;65644;44.990;20.288;2023-12-04T13:12:10;23.20;;;17.30;;
76714;SDS011;65644;44.990;20.288;2023-12-04T13:14:36;23.35;;;17.05;;
76714;SDS011;65644;44.990;20.288;2023-12-04T13:17:02;22.42;;;16.05;;
76714;SDS011;65644;44.990;20.288;2023-12-04T13:19:29;21.60;;;16.35;;
76714;SDS011;65644;44.990;20.288;2023-12-04T13:21:56;40.83;;;25.42;;
76714;SDS011;65644;44.990;20.288;2023-12-04T13:24:22;26.23;;;17.08;;
76714;SDS011;65644;44.990;20.288;2023-12-04T13:26:49;25.70;;;18.67;;
76714;SDS011;65644;44.990;20.288;2023-12-04T13:29:15;27.00;;;18.10;;
76714;SDS011;65644;44.990;20.288;2023-12-04T13:31:42;27.88;;;19.63;;
76714;SDS011;65644;44.990;20.288;2023-12-04T13:34:08;32.38;;;20.48;;
76714;SDS011;65644;44.990;20.288;2023-12-04T13:36:35;25.27;;;18.30;;
76714;SDS011;65644;44.990;20.288;2023-12-04T13:39:02;27.48;;;20.08;;
76714;SDS011;65644;44.990;20.288;2023-12-04T13:41:30;25.92;;;19.20;;
76714;SDS011;65644;44.990;20.288;2023-12-04T13:44:14;26.55;;;18.92;;
76714;SDS011;65644;44.990;20.288;2023-12-04T13:46:41;26.60;;;19.00;;
76714;SDS011;65644;44.990;20.288;2023-12-04T13:49:07;25.48;;;18.50;;
76714;SDS011;65644;44.990;20.288;2023-12-04T13:51:33;29.73;;;19.35;;
76714;SDS011;65644;44.990;20.288;2023-12-04T13:54:02;26.00;;;18.38;;
76714;SDS011;65644;44.990;20.288;2023-12-04T13:56:40;25.27;;;18.38;;
76714;SDS011;65644;44.990;20.288;2023-12-04T13:59:25;29.52;;;19.35;;
76714;SDS011;65644;44.990;20.288;2023-12-04T14:01:52;25.52;;;18.35;;
76714;SDS011;65644;44.990;20.288;2023-12-04T14:04:24;26.83;;;19.60;;
76714;SDS011;65644;44.990;20.288;2023-12-04T14:06:50;25.52;;;19.35;;
76714;SDS011;65644;44.990;20.288;2023-12-04T14:09:16;25.42;;;19.48;;